Percy, Mississippi
Current Conditions -  °F | °C
As of 7:09 AM on Thursday 30 Oct 2014 (Local Time) from KGLH Reporting Station
Haze Haze  
Wind Chill: 45°   Ceiling: Unl
Heat Index: 45°   Visibility: 1.5mi
Dew Point: 43°   Wind: 0mph
Humidity: 93%   Direction: NA
Pressure: 30.15"   Gusts: NA
Location:  33.1785°N, 90.8086°W
Report Text: KGLH 301209Z AUTO 00000KT 1 1/2SM BR CLR 07/06 A3015 RMK AO2 T00720061 $
Loading
Personal Weather Stations






























Interactive Weather Map
Tropical Storm Tracking
New forecast layout! Learn more

10-Day Weather Forecast

Advertisements
Track Severe Weather on mobile